Ora Direzione Vento Velocita' Vento Media Vento Raffica Max. Temperatura Wind Chill Pioggia Pressione
20:44:50.0227 °(SW)1.2 Kts1.4 Kts6.8 Kts20.6 °C1.2 °C0.0 mm1018.1 Hpa
20:24:37.0226 °(SW)2.0 Kts2.3 Kts6.8 Kts23.9 °C2.0 °C0.0 mm1018.2 Hpa
20:04:21.0224 °(SW)3.7 Kts3.6 Kts6.8 Kts26.5 °C3.7 °C0.0 mm1018.1 Hpa
19:44:01.0215 °(SW)4.2 Kts3.5 Kts6.8 Kts28.7 °C4.2 °C0.0 mm1018.2 Hpa
19:24:48.0235 °(SW)3.1 Kts4.2 Kts6.8 Kts31.2 °C3.1 °C0.0 mm1018.1 Hpa
19:04:23.0221 °(SW)4.7 Kts4.3 Kts6.8 Kts32.3 °C4.7 °C0.0 mm1018.1 Hpa
18:44:05.0230 °(SW)4.3 Kts3.9 Kts6.8 Kts33.7 °C4.3 °C0.0 mm1018.2 Hpa
18:24:49.0233 °(SW)4.8 Kts4.3 Kts6.8 Kts34.4 °C4.8 °C0.0 mm1018.3 Hpa
18:04:33.0250 °(WSW)5.2 Kts4.7 Kts6.8 Kts33.7 °C5.2 °C0.0 mm1018.4 Hpa
17:44:12.0247 °(WSW)4.4 Kts5.3 Kts6.8 Kts34.1 °C4.4 °C0.0 mm1018.5 Hpa
17:23:51.0144 °(SE)0.0 Kts2.1 Kts6.8 Kts28.2 °C0.0 °C0.0 mm1019.4 Hpa
17:04:34.0144 °(SE)0.0 Kts2.1 Kts6.8 Kts28.2 °C0.0 °C0.0 mm1019.4 Hpa
16:44:10.0144 °(SE)0.0 Kts2.1 Kts6.8 Kts28.2 °C0.0 °C0.0 mm1019.4 Hpa
16:23:51.0353 °(N)1.1 Kts0.0 Kts6.8 Kts27.6 °C1.1 °C0.0 mm1019.5 Hpa
16:04:36.0222 °(SW)6.5 Kts7.2 Kts11.5 Kts28.9 °C6.5 °C0.0 mm1017.2 Hpa
15:44:23.0222 °(SW)6.5 Kts7.2 Kts11.5 Kts28.9 °C6.5 °C0.0 mm1017.2 Hpa
15:24:06.0222 °(SW)6.5 Kts7.2 Kts11.5 Kts28.9 °C6.5 °C0.0 mm1017.2 Hpa
15:03:45.0222 °(SW)6.5 Kts7.2 Kts11.5 Kts28.9 °C6.5 °C0.0 mm1017.2 Hpa
14:43:50.0222 °(SW)6.5 Kts7.2 Kts11.5 Kts28.9 °C6.5 °C0.0 mm1017.2 Hpa
14:23:54.0222 °(SW)6.5 Kts7.2 Kts11.5 Kts28.9 °C6.5 °C0.0 mm1017.2 Hpa